createdAt,value
2022-08-17T00:01:32.725Z,27.00
2022-08-17T00:04:20.461Z,27.00
2022-08-17T00:06:49.433Z,26.90
2022-08-17T00:09:18.718Z,26.90
2022-08-17T00:12:03.900Z,26.80
2022-08-17T00:14:36.505Z,26.80
2022-08-17T00:17:07.053Z,26.80
2022-08-17T00:19:34.065Z,26.80
2022-08-17T00:22:35.027Z,26.80
2022-08-17T00:24:49.820Z,26.70
2022-08-17T00:27:17.171Z,26.70
2022-08-17T00:29:45.681Z,26.70
2022-08-17T00:33:10.908Z,26.70
2022-08-17T00:35:00.359Z,26.70
2022-08-17T00:37:27.259Z,26.70
2022-08-17T00:39:54.127Z,26.70
2022-08-17T00:42:20.884Z,26.70
2022-08-17T00:44:47.931Z,26.60
2022-08-17T00:47:14.668Z,26.70
2022-08-17T00:49:41.501Z,26.70
2022-08-17T00:52:15.566Z,26.70
2022-08-17T00:54:46.228Z,26.60
2022-08-17T00:57:21.228Z,26.60
2022-08-17T01:00:02.726Z,26.60
2022-08-17T01:02:34.381Z,26.60
2022-08-17T01:05:16.358Z,26.60
2022-08-17T01:07:47.703Z,26.60
2022-08-17T01:11:00.679Z,26.60
2022-08-17T01:13:03.263Z,26.60
2022-08-17T01:15:33.387Z,26.60
2022-08-17T01:18:00.169Z,26.50
2022-08-17T01:20:27.100Z,26.60
2022-08-17T01:22:54.172Z,26.60
2022-08-17T01:25:22.166Z,26.60
2022-08-17T01:27:49.819Z,26.50
2022-08-17T01:30:58.255Z,26.60
2022-08-17T01:33:05.756Z,26.60
2022-08-17T01:35:32.529Z,26.50
2022-08-17T01:37:59.284Z,26.50
2022-08-17T01:40:39.217Z,26.50
2022-08-17T01:43:11.304Z,26.50
2022-08-17T01:45:43.758Z,26.50
2022-08-17T01:48:12.191Z,26.50
2022-08-17T01:50:41.955Z,26.60
2022-08-17T01:53:18.050Z,26.60
2022-08-17T01:55:50.424Z,26.60
2022-08-17T01:58:17.848Z,26.60
2022-08-17T02:00:59.870Z,26.70
2022-08-17T02:03:29.123Z,26.70
2022-08-17T02:05:56.507Z,26.70
2022-08-17T02:08:36.919Z,26.70
2022-08-17T02:11:11.304Z,26.70
2022-08-17T02:13:38.914Z,26.80
2022-08-17T02:16:05.941Z,26.80
2022-08-17T02:18:32.872Z,26.80
2022-08-17T02:20:59.903Z,26.80
2022-08-17T02:23:30.351Z,26.80
2022-08-17T02:25:59.908Z,26.80
2022-08-17T02:28:28.473Z,26.70
2022-08-17T02:31:02.676Z,26.60
2022-08-17T02:33:37.285Z,26.50
2022-08-17T02:36:12.086Z,26.50
2022-08-17T02:38:39.810Z,26.40
2022-08-17T02:41:06.731Z,26.30
2022-08-17T02:43:33.470Z,26.40
2022-08-17T02:46:00.224Z,26.40
2022-08-17T02:48:30.513Z,26.40
2022-08-17T02:50:59.200Z,26.40
2022-08-17T02:53:26.125Z,26.30
2022-08-17T02:55:53.222Z,26.30
2022-08-17T02:58:34.733Z,26.40
2022-08-17T03:01:07.303Z,26.40
2022-08-17T03:03:35.149Z,26.40
2022-08-17T03:06:02.368Z,26.40
2022-08-17T03:08:29.623Z,26.40
2022-08-17T03:10:56.700Z,26.30
2022-08-17T03:13:24.116Z,26.40
2022-08-17T03:15:50.992Z,26.40
2022-08-17T03:18:24.848Z,26.40
2022-08-17T03:20:58.689Z,26.40
2022-08-17T03:23:27.271Z,26.40
2022-08-17T03:25:55.170Z,26.40
2022-08-17T03:28:23.193Z,26.40
2022-08-17T03:30:51.129Z,26.40
2022-08-17T03:33:18.682Z,26.50
2022-08-17T03:35:45.905Z,26.50
2022-08-17T03:38:15.216Z,26.50
2022-08-17T03:40:57.380Z,26.50
2022-08-17T03:43:28.274Z,26.50
2022-08-17T03:46:33.981Z,26.50
2022-08-17T03:49:19.133Z,26.40
2022-08-17T03:52:04.214Z,26.40
2022-08-17T03:54:49.655Z,26.40
2022-08-17T03:57:16.588Z,26.40
2022-08-17T03:59:45.042Z,26.20
2022-08-17T04:02:18.771Z,26.20
2022-08-17T04:04:45.637Z,26.10
2022-08-17T04:07:12.527Z,26.20
2022-08-17T04:09:39.360Z,26.10
2022-08-17T04:12:06.361Z,26.10
2022-08-17T04:14:53.245Z,26.10
2022-08-17T04:17:23.526Z,26.00
2022-08-17T04:19:50.436Z,26.00
2022-08-17T04:22:30.508Z,25.90
2022-08-17T04:25:15.909Z,25.90
2022-08-17T04:27:42.766Z,25.90
2022-08-17T04:30:10.195Z,25.80
2022-08-17T04:33:08.539Z,25.80
2022-08-17T04:35:41.799Z,25.80
2022-08-17T04:38:13.236Z,25.80
2022-08-17T04:40:58.972Z,25.80
2022-08-17T04:43:27.525Z,25.70
2022-08-17T04:45:57.245Z,25.60
2022-08-17T04:48:29.703Z,25.60
2022-08-17T04:51:07.132Z,25.60
2022-08-17T04:53:34.027Z,25.50
2022-08-17T04:56:00.831Z,25.50
2022-08-17T04:58:27.663Z,25.40
2022-08-17T05:00:54.463Z,25.40
2022-08-17T05:03:21.423Z,25.40
2022-08-17T05:05:49.711Z,25.40
2022-08-17T05:08:19.240Z,25.40
2022-08-17T05:10:46.858Z,25.40
2022-08-17T05:13:17.478Z,25.40
2022-08-17T05:15:47.869Z,25.40
2022-08-17T05:18:16.020Z,25.40
2022-08-17T05:20:43.493Z,25.40
2022-08-17T05:23:13.400Z,25.40
2022-08-17T05:25:47.743Z,25.40
2022-08-17T05:28:16.708Z,25.50
2022-08-17T05:30:44.719Z,25.40
2022-08-17T05:33:22.958Z,25.50
2022-08-17T05:35:54.564Z,25.40
2022-08-17T05:38:22.943Z,25.50
2022-08-17T05:40:50.341Z,25.50
2022-08-17T05:43:21.112Z,25.40
2022-08-17T05:45:55.795Z,25.40
2022-08-17T05:48:35.605Z,25.40
2022-08-17T05:51:41.634Z,25.40
2022-08-17T05:54:30.375Z,25.30
2022-08-17T05:57:20.834Z,25.20
2022-08-17T06:00:03.381Z,25.20
2022-08-17T06:03:14.430Z,25.30
2022-08-17T06:06:02.543Z,25.30
2022-08-17T06:08:48.056Z,25.40
2022-08-17T06:11:37.320Z,25.40
2022-08-17T06:14:43.124Z,25.50
2022-08-17T06:17:14.880Z,25.50
2022-08-17T06:19:48.856Z,25.50
2022-08-17T06:22:18.422Z,25.50
2022-08-17T06:24:56.681Z,25.40
2022-08-17T06:27:53.850Z,25.40
2022-08-17T06:30:59.944Z,25.40
2022-08-17T06:33:23.658Z,25.50
2022-08-17T06:36:09.982Z,25.50
2022-08-17T06:39:10.317Z,25.60
2022-08-17T06:42:54.042Z,25.60
2022-08-17T06:45:09.951Z,25.70
2022-08-17T06:47:55.278Z,25.70
2022-08-17T06:50:35.919Z,25.80
2022-08-17T06:53:21.053Z,25.80
2022-08-17T06:56:05.869Z,25.80
2022-08-17T06:58:35.642Z,25.90
2022-08-17T07:01:20.172Z,25.90
2022-08-17T07:03:59.349Z,25.80
2022-08-17T07:06:49.208Z,25.80
2022-08-17T07:09:25.441Z,25.90
2022-08-17T07:11:54.448Z,25.90
2022-08-17T07:14:36.456Z,25.90
2022-08-17T07:17:09.044Z,25.90
2022-08-17T07:19:40.519Z,25.90
2022-08-17T07:22:27.864Z,25.80
2022-08-17T07:25:09.637Z,25.80
2022-08-17T07:27:43.114Z,25.80
2022-08-17T07:30:26.101Z,25.80
2022-08-17T07:33:09.688Z,25.80
2022-08-17T07:35:48.062Z,25.80
2022-08-17T07:38:26.799Z,25.80
2022-08-17T07:41:03.555Z,25.80
2022-08-17T07:43:42.321Z,25.80
2022-08-17T07:46:41.861Z,25.80
2022-08-17T07:49:14.460Z,25.80
2022-08-17T07:51:56.639Z,25.80
2022-08-17T07:54:35.696Z,25.90
2022-08-17T07:57:14.232Z,25.90
2022-08-17T07:59:43.963Z,25.90
2022-08-17T08:02:17.087Z,25.90
2022-08-17T08:05:03.500Z,25.90
2022-08-17T08:07:58.215Z,25.90
2022-08-17T08:10:45.290Z,26.00
2022-08-17T08:13:14.597Z,26.00
2022-08-17T08:15:54.082Z,26.00
2022-08-17T08:18:38.623Z,26.20
2022-08-17T08:21:22.359Z,26.20
2022-08-17T08:24:01.004Z,26.30
2022-08-17T08:26:47.267Z,26.30
2022-08-17T08:29:43.283Z,26.40
2022-08-17T08:32:33.346Z,26.40
2022-08-17T08:35:08.650Z,26.50
2022-08-17T08:37:43.150Z,26.60
2022-08-17T08:40:40.972Z,26.70
2022-08-17T08:43:22.009Z,26.80
2022-08-17T08:46:11.693Z,26.90
2022-08-17T08:49:06.559Z,27.00
2022-08-17T08:51:37.167Z,27.10
2022-08-17T08:54:16.732Z,27.10
2022-08-17T08:57:23.256Z,27.10
2022-08-17T08:59:58.064Z,27.10
2022-08-17T09:02:37.169Z,27.10
2022-08-17T09:05:37.857Z,26.90
2022-08-17T09:08:11.005Z,26.80
2022-08-17T09:10:49.723Z,26.80
2022-08-17T09:13:23.911Z,26.70
2022-08-17T09:15:59.976Z,26.70
2022-08-17T09:19:03.215Z,26.70
2022-08-17T09:21:23.682Z,26.70
2022-08-17T09:24:20.726Z,26.60
2022-08-17T09:27:20.000Z,26.50
2022-08-17T09:29:51.533Z,26.40
2022-08-17T09:32:31.283Z,26.30
2022-08-17T09:35:04.364Z,26.30
2022-08-17T09:37:47.548Z,26.20
2022-08-17T09:40:46.948Z,25.90
2022-08-17T09:43:31.849Z,25.50
2022-08-17T09:46:15.905Z,25.10
2022-08-17T09:48:55.273Z,24.90
2022-08-17T09:51:30.288Z,24.80
2022-08-17T09:54:09.689Z,24.80
2022-08-17T09:57:25.832Z,24.90
2022-08-17T10:00:23.655Z,25.00
2022-08-17T10:03:28.151Z,25.30
2022-08-17T10:06:21.786Z,25.60
2022-08-17T10:09:00.125Z,25.80
2022-08-17T10:12:00.033Z,25.90
2022-08-17T10:14:44.420Z,25.90
2022-08-17T10:17:20.396Z,26.00
2022-08-17T10:20:00.849Z,26.00
2022-08-17T10:22:54.875Z,25.90
2022-08-17T10:25:54.989Z,25.90
2022-08-17T10:28:29.797Z,25.90
2022-08-17T10:34:22.855Z,26.10
2022-08-17T10:37:12.196Z,26.10
2022-08-17T10:40:07.327Z,26.40
2022-08-17T10:42:48.958Z,26.70
2022-08-17T10:45:20.756Z,26.80
2022-08-17T10:48:06.859Z,26.80
2022-08-17T10:50:46.219Z,26.70
2022-08-17T10:53:33.245Z,26.70
2022-08-17T10:56:12.289Z,26.70
2022-08-17T10:58:46.476Z,26.60
2022-08-17T11:01:13.567Z,26.50
2022-08-17T11:03:54.016Z,26.50
2022-08-17T11:06:38.871Z,26.60
2022-08-17T11:09:27.563Z,26.50
2022-08-17T11:12:23.919Z,26.50
2022-08-17T11:14:57.793Z,26.50
2022-08-17T11:17:57.501Z,26.40
2022-08-17T11:20:24.217Z,26.30
2022-08-17T11:23:23.854Z,26.20
2022-08-17T11:25:57.552Z,26.20
2022-08-17T11:28:34.245Z,26.10
2022-08-17T11:31:38.904Z,26.10
2022-08-17T11:34:17.072Z,26.00
2022-08-17T11:37:15.189Z,26.00
2022-08-17T11:39:56.584Z,26.00
2022-08-17T11:42:55.331Z,25.90
2022-08-17T11:45:32.346Z,25.70
2022-08-17T11:48:50.437Z,25.60
2022-08-17T11:51:34.814Z,25.60
2022-08-17T11:54:31.518Z,25.50
2022-08-17T11:56:53.544Z,25.50
2022-08-17T11:59:45.801Z,25.40
2022-08-17T12:02:35.188Z,25.30
2022-08-17T12:05:23.277Z,25.20
2022-08-17T12:08:17.576Z,25.20
2022-08-17T12:12:11.123Z,25.10
2022-08-17T12:14:10.040Z,25.00
2022-08-17T12:16:38.392Z,25.10
2022-08-17T12:19:05.986Z,25.10
2022-08-17T12:21:40.471Z,25.20
2022-08-17T12:24:33.388Z,25.30
2022-08-17T12:27:04.232Z,25.40
2022-08-17T12:29:35.594Z,25.40
2022-08-17T12:32:12.990Z,25.40
2022-08-17T12:34:42.599Z,25.50
2022-08-17T12:37:18.519Z,25.40
2022-08-17T12:39:57.658Z,25.40
2022-08-17T12:42:37.516Z,25.50
2022-08-17T12:45:07.425Z,25.60
2022-08-17T12:47:37.452Z,25.60
2022-08-17T12:50:29.087Z,25.60
2022-08-17T12:52:59.727Z,25.50
2022-08-17T12:55:33.836Z,25.50
2022-08-17T12:58:02.290Z,25.50
2022-08-17T13:00:35.413Z,25.50
2022-08-17T13:03:15.602Z,25.50
2022-08-17T13:05:55.160Z,25.60
2022-08-17T13:08:35.594Z,25.50
2022-08-17T13:11:18.410Z,25.50
2022-08-17T13:13:51.847Z,25.50
2022-08-17T13:16:21.993Z,25.50
2022-08-17T13:19:06.977Z,25.60
2022-08-17T13:21:35.339Z,25.60
2022-08-17T13:24:10.892Z,25.60
2022-08-17T13:26:48.174Z,25.60
2022-08-17T13:29:39.233Z,25.60
2022-08-17T13:32:13.457Z,25.60
2022-08-17T13:35:11.944Z,25.60
2022-08-17T13:37:37.086Z,25.60
2022-08-17T13:40:09.618Z,25.70
2022-08-17T13:42:50.374Z,25.80
2022-08-17T13:45:35.520Z,25.80
2022-08-17T13:48:21.666Z,25.80
2022-08-17T13:50:57.409Z,25.90
2022-08-17T13:53:53.267Z,25.90
2022-08-17T13:57:04.536Z,25.90
2022-08-17T13:59:54.565Z,26.10
2022-08-17T14:02:27.555Z,26.10
2022-08-17T14:04:56.940Z,26.10
2022-08-17T14:07:37.961Z,26.20
2022-08-17T14:10:12.499Z,26.20
2022-08-17T14:12:41.589Z,26.20
2022-08-17T14:15:09.701Z,26.20
2022-08-17T14:17:47.093Z,26.20
2022-08-17T14:20:14.698Z,26.20
2022-08-17T14:22:48.303Z,26.30
2022-08-17T14:25:20.744Z,26.30
2022-08-17T14:27:52.816Z,26.40
2022-08-17T14:30:23.654Z,26.40
2022-08-17T14:32:52.058Z,26.40
2022-08-17T14:35:22.339Z,26.50
2022-08-17T14:37:50.467Z,26.50
2022-08-17T14:40:20.681Z,26.50
2022-08-17T14:42:48.051Z,26.50
2022-08-17T14:45:30.470Z,26.50
2022-08-17T14:48:01.289Z,26.60
2022-08-17T14:50:28.105Z,26.50
2022-08-17T14:52:57.948Z,26.50
2022-08-17T14:55:25.071Z,26.50
2022-08-17T14:57:52.053Z,26.50
2022-08-17T15:00:19.089Z,26.70
2022-08-17T15:02:54.032Z,26.90
2022-08-17T15:05:23.377Z,27.00
2022-08-17T15:07:50.560Z,26.90
2022-08-17T15:10:17.655Z,26.90
2022-08-17T15:12:44.448Z,26.80
2022-08-17T15:15:13.910Z,26.80
2022-08-17T15:17:45.872Z,26.60
2022-08-17T15:20:19.031Z,26.60
2022-08-17T15:22:49.690Z,26.50
2022-08-17T15:25:17.989Z,26.50
2022-08-17T15:27:44.849Z,26.50
2022-08-17T15:30:12.212Z,26.50
2022-08-17T15:32:41.068Z,26.50
2022-08-17T15:35:18.157Z,26.40
2022-08-17T15:37:45.375Z,26.40
2022-08-17T15:40:12.892Z,26.40
2022-08-17T15:42:40.952Z,26.40
2022-08-17T15:45:11.344Z,26.30
2022-08-17T15:47:38.905Z,26.30
2022-08-17T15:50:07.981Z,26.30
2022-08-17T15:52:40.456Z,26.30
2022-08-17T15:55:10.818Z,26.40
2022-08-17T15:57:37.762Z,26.40
2022-08-17T16:00:07.753Z,26.40
2022-08-17T16:03:14.192Z,26.40
2022-08-17T16:05:28.531Z,26.50
2022-08-17T16:07:59.526Z,26.60
2022-08-17T16:10:34.776Z,26.60
2022-08-17T16:13:03.319Z,26.60
2022-08-17T16:15:31.500Z,26.60
2022-08-17T16:17:58.539Z,26.70
2022-08-17T16:20:25.947Z,26.70
2022-08-17T16:22:54.138Z,26.70
2022-08-17T16:25:50.413Z,26.80
2022-08-17T16:28:11.838Z,26.90
2022-08-17T16:30:38.908Z,27.00
2022-08-17T16:33:06.021Z,27.00
2022-08-17T16:35:33.273Z,27.10
2022-08-17T16:38:00.470Z,27.00
2022-08-17T16:40:29.668Z,27.00
2022-08-17T16:43:00.140Z,26.90
2022-08-17T16:45:36.789Z,26.90
2022-08-17T16:48:04.431Z,27.00
2022-08-17T16:50:32.017Z,26.90
2022-08-17T16:53:17.811Z,26.90
2022-08-17T16:55:49.114Z,26.90
2022-08-17T16:58:16.125Z,26.90
2022-08-17T17:00:45.043Z,26.90
2022-08-17T17:03:18.972Z,26.90
2022-08-17T17:06:03.768Z,27.00
2022-08-17T17:08:57.420Z,27.00
2022-08-17T17:11:43.108Z,26.90
2022-08-17T17:14:16.788Z,26.90
2022-08-17T17:16:51.732Z,26.90
2022-08-17T17:19:47.714Z,26.80
2022-08-17T17:22:25.148Z,26.80
2022-08-17T17:25:02.379Z,26.80
2022-08-17T17:28:06.624Z,26.70
2022-08-17T17:30:53.443Z,26.70
2022-08-17T17:33:27.317Z,26.70
2022-08-17T17:36:01.660Z,26.70
2022-08-17T17:38:37.748Z,26.80
2022-08-17T17:41:11.077Z,26.80
2022-08-17T17:43:40.192Z,26.70
2022-08-17T17:46:27.114Z,26.70
2022-08-17T17:48:56.718Z,26.70
2022-08-17T17:51:55.712Z,26.70
2022-08-17T17:54:43.581Z,26.70
2022-08-17T17:57:28.661Z,26.70
2022-08-17T18:00:24.263Z,26.60
2022-08-17T18:03:23.852Z,26.60
2022-08-17T18:06:21.664Z,26.60
2022-08-17T18:08:49.140Z,26.50
2022-08-17T18:11:24.606Z,26.50
2022-08-17T18:14:39.805Z,26.50
2022-08-17T18:17:07.111Z,26.50
2022-08-17T18:19:33.959Z,26.50
2022-08-17T18:22:06.953Z,26.40
2022-08-17T18:24:38.520Z,26.40
2022-08-17T18:27:23.734Z,26.40
2022-08-17T18:29:53.709Z,26.30
2022-08-17T18:32:46.295Z,26.30
2022-08-17T18:35:15.641Z,26.20
2022-08-17T18:37:52.728Z,26.20
2022-08-17T18:40:19.748Z,26.10
2022-08-17T18:42:56.632Z,26.00
2022-08-17T18:45:38.220Z,26.00
2022-08-17T18:48:17.832Z,26.00
2022-08-17T18:50:44.995Z,25.90
2022-08-17T18:53:40.618Z,26.00
2022-08-17T18:56:30.529Z,25.90
2022-08-17T18:59:26.898Z,25.90
2022-08-17T19:01:58.871Z,25.60
2022-08-17T19:04:37.513Z,25.40
2022-08-17T19:07:23.162Z,25.10
2022-08-17T19:10:04.540Z,25.00
2022-08-17T19:12:33.540Z,24.90
2022-08-17T19:15:01.013Z,24.70
2022-08-17T19:17:39.396Z,24.60
2022-08-17T19:20:20.156Z,24.60
2022-08-17T19:23:01.459Z,24.60
2022-08-17T19:25:34.254Z,24.60
2022-08-17T19:28:21.815Z,24.50
2022-08-17T19:30:54.669Z,24.50
2022-08-17T19:33:21.713Z,24.40
2022-08-17T19:36:09.773Z,24.30
2022-08-17T19:38:43.879Z,24.30
2022-08-17T19:41:26.770Z,24.30
2022-08-17T19:44:02.580Z,24.30
2022-08-17T19:46:37.274Z,24.30
2022-08-17T19:49:12.515Z,24.30
2022-08-17T19:51:45.356Z,24.30
2022-08-17T19:54:33.640Z,24.30
2022-08-17T19:57:06.647Z,24.30
2022-08-17T19:59:59.186Z,24.30
2022-08-17T20:03:06.085Z,24.30
2022-08-17T20:06:11.008Z,24.30
2022-08-17T20:09:05.971Z,24.20
2022-08-17T20:12:04.057Z,24.20
2022-08-17T20:14:53.912Z,24.20
2022-08-17T20:17:28.464Z,24.20
2022-08-17T20:20:02.520Z,24.20
2022-08-17T20:22:51.838Z,24.20
2022-08-17T20:25:51.296Z,24.20
2022-08-17T20:28:31.079Z,24.20
2022-08-17T20:30:58.546Z,24.20
2022-08-17T20:33:38.176Z,24.20
2022-08-17T20:36:24.245Z,24.10
2022-08-17T20:38:56.652Z,24.10
2022-08-17T20:41:28.357Z,24.10
2022-08-17T20:43:58.816Z,24.10
2022-08-17T20:46:28.610Z,24.10
2022-08-17T20:49:26.033Z,24.10
2022-08-17T20:52:02.499Z,24.10
2022-08-17T20:54:44.240Z,24.10
2022-08-17T20:57:32.689Z,24.10
2022-08-17T21:00:24.181Z,24.10
2022-08-17T21:03:11.997Z,24.00
2022-08-17T21:05:58.842Z,24.10
2022-08-17T21:08:29.635Z,24.00
2022-08-17T21:10:57.998Z,24.10
2022-08-17T21:13:39.249Z,24.20
2022-08-17T21:16:25.659Z,24.20
2022-08-17T21:18:58.394Z,24.20
2022-08-17T21:21:41.476Z,24.20
2022-08-17T21:24:25.082Z,24.20
2022-08-17T21:27:13.983Z,24.20
2022-08-17T21:30:22.954Z,24.20
2022-08-17T21:33:18.842Z,24.10
2022-08-17T21:35:50.066Z,24.10
2022-08-17T21:38:21.209Z,24.20
2022-08-17T21:40:52.642Z,24.10
2022-08-17T21:43:37.437Z,24.10
2022-08-17T21:46:21.861Z,24.10
2022-08-17T21:48:54.326Z,24.10
2022-08-17T21:51:26.295Z,24.10
2022-08-17T21:53:57.340Z,24.10
2022-08-17T21:56:33.657Z,24.10
2022-08-17T21:59:04.748Z,24.10
2022-08-17T22:01:37.504Z,24.10
2022-08-17T22:04:06.541Z,24.10
2022-08-17T22:06:56.673Z,24.10
2022-08-17T22:09:28.525Z,24.10
2022-08-17T22:12:16.435Z,24.10
2022-08-17T22:14:58.864Z,24.10
2022-08-17T22:17:29.990Z,24.10
2022-08-17T22:20:06.078Z,24.00
2022-08-17T22:22:55.660Z,24.00
2022-08-17T22:25:24.151Z,24.00
2022-08-17T22:27:58.100Z,23.90
2022-08-17T22:30:41.950Z,24.00
2022-08-17T22:33:49.640Z,23.90
2022-08-17T22:36:26.888Z,23.80
2022-08-17T22:39:00.304Z,23.80
2022-08-17T22:41:42.257Z,23.70
2022-08-17T22:44:29.662Z,23.70
2022-08-17T22:47:14.526Z,23.70
2022-08-17T22:49:57.636Z,23.70
2022-08-17T22:52:59.751Z,23.70
2022-08-17T22:55:47.683Z,23.70
2022-08-17T22:58:38.728Z,23.70
2022-08-17T23:01:45.434Z,23.70
2022-08-17T23:04:31.585Z,23.70
2022-08-17T23:06:58.476Z,23.80
2022-08-17T23:09:25.345Z,23.80
2022-08-17T23:11:58.634Z,23.80
2022-08-17T23:14:31.757Z,23.80
2022-08-17T23:16:59.730Z,23.70
2022-08-17T23:19:27.946Z,23.70
2022-08-17T23:21:56.243Z,23.80
2022-08-17T23:24:27.060Z,23.70
2022-08-17T23:26:57.191Z,23.70
2022-08-17T23:29:29.474Z,23.70
2022-08-17T23:31:59.783Z,23.70
2022-08-17T23:34:27.966Z,23.70
2022-08-17T23:36:55.947Z,23.70
2022-08-17T23:39:27.484Z,23.70
2022-08-17T23:41:58.771Z,23.70
2022-08-17T23:44:26.567Z,23.70
2022-08-17T23:46:53.853Z,23.70
2022-08-17T23:49:20.616Z,23.70
2022-08-17T23:51:48.617Z,23.60
2022-08-17T23:54:35.001Z,23.60
2022-08-17T23:57:04.226Z,23.50
2022-08-17T23:59:32.957Z,23.40
